createdAt,value
2023-05-13T00:00:48.967Z,14.86
2023-05-13T00:03:51.861Z,14.79
2023-05-13T00:06:54.940Z,14.73
2023-05-13T00:09:57.848Z,14.67
2023-05-13T00:13:00.901Z,14.61
2023-05-13T00:16:03.862Z,14.55
2023-05-13T00:19:06.956Z,14.48
2023-05-13T00:22:10.044Z,14.41
2023-05-13T00:25:13.072Z,14.34
2023-05-13T00:28:16.079Z,14.27
2023-05-13T00:31:19.059Z,14.20
2023-05-13T00:34:22.224Z,14.14
2023-05-13T00:37:25.219Z,14.09
2023-05-13T00:40:28.183Z,14.04
2023-05-13T00:43:31.273Z,14.00
2023-05-13T00:46:34.463Z,13.96
2023-05-13T00:49:37.561Z,13.93
2023-05-13T00:52:41.533Z,13.89
2023-05-13T00:55:45.799Z,13.84
2023-05-13T00:58:48.962Z,13.81
2023-05-13T01:01:54.637Z,13.78
2023-05-13T01:05:16.122Z,13.75
2023-05-13T01:08:42.286Z,13.73
2023-05-13T01:11:46.630Z,13.70
2023-05-13T01:14:58.515Z,13.69
2023-05-13T01:18:10.460Z,13.66
2023-05-13T01:21:13.445Z,13.65
2023-05-13T01:24:16.471Z,13.63
2023-05-13T01:27:19.898Z,13.60
2023-05-13T01:30:23.951Z,13.56
2023-05-13T01:33:27.310Z,13.55
2023-05-13T01:36:30.459Z,13.54
2023-05-13T01:39:35.112Z,13.52
2023-05-13T01:42:40.092Z,13.50
2023-05-13T01:45:44.753Z,13.48
2023-05-13T01:48:48.660Z,13.46
2023-05-13T01:51:51.928Z,13.44
2023-05-13T01:54:55.093Z,13.42
2023-05-13T01:57:58.051Z,13.39
2023-05-13T02:01:01.136Z,13.35
2023-05-13T02:04:04.409Z,13.31
2023-05-13T02:07:07.420Z,13.28
2023-05-13T02:10:10.872Z,13.25
2023-05-13T02:13:13.863Z,13.23
2023-05-13T02:16:17.469Z,13.21
2023-05-13T02:19:20.371Z,13.18
2023-05-13T02:22:24.742Z,13.15
2023-05-13T02:25:27.793Z,13.14
2023-05-13T02:28:30.835Z,13.11
2023-05-13T02:31:33.841Z,13.09
2023-05-13T02:34:38.388Z,13.07
2023-05-13T02:37:41.359Z,13.05
2023-05-13T02:40:45.366Z,13.03
2023-05-13T02:43:48.491Z,13.02
2023-05-13T02:46:51.643Z,13.00
2023-05-13T02:49:57.755Z,12.98
2023-05-13T02:53:01.193Z,12.96
2023-05-13T02:56:04.521Z,12.95
2023-05-13T02:59:07.404Z,12.94
2023-05-13T03:02:10.898Z,12.93
2023-05-13T03:05:13.852Z,12.92
2023-05-13T03:08:16.807Z,12.91
2023-05-13T03:11:19.695Z,12.90
2023-05-13T03:14:23.228Z,12.89
2023-05-13T03:17:26.251Z,12.86
2023-05-13T03:20:29.358Z,12.82
2023-05-13T03:23:33.395Z,12.80
2023-05-13T03:26:36.657Z,12.76
2023-05-13T03:29:40.041Z,12.73
2023-05-13T03:32:44.059Z,12.71
2023-05-13T03:35:49.103Z,12.71
2023-05-13T03:38:53.309Z,12.70
2023-05-13T03:41:56.510Z,12.68
2023-05-13T03:44:59.685Z,12.68
2023-05-13T03:48:02.647Z,12.68
2023-05-13T03:51:06.474Z,12.70
2023-05-13T03:54:09.426Z,12.70
2023-05-13T03:57:12.485Z,12.70
2023-05-13T04:00:15.670Z,12.70
2023-05-13T04:03:19.124Z,12.70
2023-05-13T04:06:22.086Z,12.72
2023-05-13T04:09:24.982Z,12.74
2023-05-13T04:12:27.859Z,12.76
2023-05-13T04:15:31.840Z,12.77
2023-05-13T04:18:34.887Z,12.79
2023-05-13T04:21:37.978Z,12.81
2023-05-13T04:24:40.910Z,12.84
2023-05-13T04:27:44.873Z,12.87
2023-05-13T04:30:53.200Z,12.91
2023-05-13T04:33:56.797Z,12.95
2023-05-13T04:37:01.089Z,12.99
2023-05-13T04:40:04.372Z,13.05
2023-05-13T04:43:07.445Z,13.10
2023-05-13T04:46:17.651Z,13.15
2023-05-13T04:49:20.900Z,13.19
2023-05-13T04:52:24.658Z,13.24
2023-05-13T04:55:28.399Z,13.32
2023-05-13T04:58:32.585Z,13.42
2023-05-13T05:01:35.697Z,13.53
2023-05-13T05:04:38.632Z,13.61
2023-05-13T05:07:47.065Z,13.69
2023-05-13T05:10:50.122Z,13.75
2023-05-13T05:13:53.204Z,13.80
2023-05-13T05:16:56.348Z,13.86
2023-05-13T05:20:00.345Z,13.91
2023-05-13T05:23:03.608Z,13.98
2023-05-13T05:26:11.633Z,14.05
2023-05-13T05:29:16.098Z,14.08
2023-05-13T05:32:20.076Z,14.12
2023-05-13T05:35:23.196Z,14.14
2023-05-13T05:38:26.395Z,14.16
2023-05-13T05:41:31.350Z,14.17
2023-05-13T05:44:34.449Z,14.18
2023-05-13T05:47:37.762Z,14.20
2023-05-13T05:50:41.514Z,14.26
2023-05-13T05:53:46.305Z,14.39
2023-05-13T05:56:51.486Z,14.57
2023-05-13T05:59:54.404Z,14.76
2023-05-13T06:02:57.675Z,14.88
2023-05-13T06:06:00.626Z,14.95
2023-05-13T06:09:04.355Z,15.00
2023-05-13T06:12:07.713Z,15.03
2023-05-13T06:15:11.173Z,15.05
2023-05-13T06:18:14.796Z,15.10
2023-05-13T06:21:17.757Z,15.15
2023-05-13T06:24:22.837Z,15.21
2023-05-13T06:27:25.875Z,15.28
2023-05-13T06:30:28.834Z,15.35
2023-05-13T06:33:31.798Z,15.47
2023-05-13T06:36:34.813Z,15.61
2023-05-13T06:39:39.271Z,15.79
2023-05-13T06:44:39.873Z,16.11
2023-05-13T06:47:41.644Z,16.26
2023-05-13T06:50:45.567Z,16.41
2023-05-13T06:53:47.220Z,16.56
2023-05-13T06:56:48.977Z,16.73
2023-05-13T06:59:50.697Z,16.91
2023-05-13T07:02:52.419Z,17.10
2023-05-13T07:05:54.922Z,17.27
2023-05-13T07:08:56.971Z,17.43
2023-05-13T07:11:58.716Z,17.59
2023-05-13T07:15:00.451Z,17.72
2023-05-13T07:18:02.211Z,17.84
2023-05-13T07:21:04.177Z,17.94
2023-05-13T07:24:05.883Z,18.01
2023-05-13T07:27:07.544Z,18.07
2023-05-13T07:30:10.990Z,18.16
2023-05-13T07:33:13.057Z,18.26
2023-05-13T07:36:14.825Z,18.36
2023-05-13T07:39:16.553Z,18.49
2023-05-13T07:42:18.571Z,18.63
2023-05-13T07:45:20.464Z,18.80
2023-05-13T07:48:23.908Z,18.98
2023-05-13T07:51:25.934Z,19.17
2023-05-13T07:54:27.955Z,19.34
2023-05-13T07:57:29.784Z,19.46
2023-05-13T08:00:31.594Z,19.57
2023-05-13T08:03:33.547Z,19.63
2023-05-13T08:06:35.336Z,19.62
2023-05-13T08:09:37.260Z,19.53
2023-05-13T08:12:39.885Z,19.47
2023-05-13T08:15:42.106Z,19.58
2023-05-13T08:18:43.821Z,19.73
2023-05-13T08:21:45.573Z,19.80
2023-05-13T08:24:47.224Z,19.85
2023-05-13T08:27:49.013Z,19.86
2023-05-13T08:30:50.665Z,19.74
2023-05-13T08:33:53.427Z,19.59
2023-05-13T08:36:55.154Z,19.65
2023-05-13T08:39:59.193Z,19.82
2023-05-13T08:43:03.924Z,20.03
2023-05-13T08:46:09.576Z,20.11
2023-05-13T08:49:11.746Z,20.19
2023-05-13T08:52:13.439Z,20.33
2023-05-13T08:55:15.558Z,20.47
2023-05-13T08:58:17.221Z,20.53
2023-05-13T09:01:19.071Z,20.44
2023-05-13T09:04:21.022Z,20.43
2023-05-13T09:07:22.786Z,20.48
2023-05-13T09:10:24.527Z,20.55
2023-05-13T09:13:26.354Z,20.46
2023-05-13T09:16:29.203Z,20.23
2023-05-13T09:19:31.440Z,20.06
2023-05-13T09:22:33.274Z,19.92
2023-05-13T09:25:37.597Z,19.76
2023-05-13T09:28:39.253Z,19.75
2023-05-13T09:31:41.020Z,19.72
2023-05-13T09:34:47.220Z,19.59
2023-05-13T09:37:48.981Z,19.41
2023-05-13T09:41:01.122Z,19.20
2023-05-13T09:44:04.160Z,18.98
2023-05-13T09:47:06.042Z,18.84
2023-05-13T09:50:09.419Z,18.74
2023-05-13T09:53:13.971Z,18.65
2023-05-13T09:56:20.592Z,18.56
2023-05-13T09:59:22.319Z,18.50
2023-05-13T10:02:24.918Z,18.44
2023-05-13T10:05:26.960Z,18.39
2023-05-13T10:08:29.586Z,18.32
2023-05-13T10:11:34.755Z,18.25
2023-05-13T10:14:37.547Z,18.21
2023-05-13T10:17:40.232Z,18.19
2023-05-13T10:20:42.681Z,18.22
2023-05-13T10:23:44.942Z,18.34
2023-05-13T10:26:48.246Z,18.45
2023-05-13T10:29:53.924Z,18.63
2023-05-13T10:32:56.470Z,18.87
2023-05-13T10:36:07.395Z,19.06
2023-05-13T10:39:57.123Z,19.16
2023-05-13T10:43:18.106Z,19.19
2023-05-13T10:46:19.874Z,19.19
2023-05-13T10:49:24.024Z,19.23
2023-05-13T10:52:41.583Z,19.26
2023-05-13T10:55:47.544Z,19.20
2023-05-13T10:59:03.409Z,19.13
2023-05-13T11:02:22.394Z,19.06
2023-05-13T11:05:24.438Z,18.98
2023-05-13T11:08:45.853Z,18.93
2023-05-13T11:11:58.299Z,18.92
2023-05-13T11:15:00.015Z,18.95
2023-05-13T11:18:02.265Z,19.06
2023-05-13T11:21:06.071Z,19.24
2023-05-13T11:24:08.840Z,19.45
2023-05-13T11:27:18.035Z,19.65
2023-05-13T11:30:26.654Z,19.74
2023-05-13T11:34:07.316Z,19.76
2023-05-13T11:37:10.335Z,19.83
2023-05-13T11:40:24.393Z,20.03
2023-05-13T11:43:27.105Z,20.33
2023-05-13T11:46:29.466Z,20.58
2023-05-13T11:49:45.811Z,20.71
2023-05-13T11:52:52.153Z,20.66
2023-05-13T11:55:54.939Z,20.61
2023-05-13T11:59:13.721Z,20.60
2023-05-13T12:02:15.427Z,20.59
2023-05-13T12:05:17.371Z,20.55
2023-05-13T12:08:22.452Z,20.50
2023-05-13T12:11:27.170Z,20.43
2023-05-13T12:14:29.865Z,20.35
2023-05-13T12:17:33.389Z,20.25
2023-05-13T12:20:35.577Z,20.12
2023-05-13T12:23:42.883Z,20.02
2023-05-13T12:26:44.757Z,19.99
2023-05-13T12:29:46.747Z,19.98
2023-05-13T12:32:48.639Z,19.94
2023-05-13T12:35:52.649Z,19.83
2023-05-13T12:38:56.018Z,19.67
2023-05-13T12:41:59.386Z,19.53
2023-05-13T12:45:01.642Z,19.39
2023-05-13T12:48:03.602Z,19.24
2023-05-13T12:51:05.324Z,19.11
2023-05-13T12:54:07.020Z,19.00
2023-05-13T12:57:09.261Z,18.93
2023-05-13T13:00:11.160Z,18.90
2023-05-13T13:03:13.232Z,18.89
2023-05-13T13:06:15.145Z,18.88
2023-05-13T13:09:16.890Z,18.93
2023-05-13T13:12:18.525Z,19.11
2023-05-13T13:15:20.487Z,19.34
2023-05-13T13:18:23.696Z,19.44
2023-05-13T13:21:25.435Z,19.43
2023-05-13T13:24:27.117Z,19.38
2023-05-13T13:27:28.813Z,19.33
2023-05-13T13:30:30.639Z,19.29
2023-05-13T13:33:32.378Z,19.25
2023-05-13T13:36:34.745Z,19.19
2023-05-13T13:39:36.469Z,19.12
2023-05-13T13:42:43.931Z,19.15
2023-05-13T13:45:46.584Z,19.20
2023-05-13T13:48:48.383Z,19.22
2023-05-13T13:51:52.118Z,19.27
2023-05-13T13:54:54.485Z,19.27
2023-05-13T13:57:56.707Z,19.24
2023-05-13T14:00:58.500Z,19.21
2023-05-13T14:04:14.757Z,19.17
2023-05-13T14:07:16.849Z,19.14
2023-05-13T14:10:19.300Z,19.11
2023-05-13T14:13:21.108Z,19.07
2023-05-13T14:16:23.226Z,19.03
2023-05-13T14:19:25.005Z,18.99
2023-05-13T14:22:26.769Z,18.95
2023-05-13T14:25:28.655Z,18.91
2023-05-13T14:28:30.455Z,18.88
2023-05-13T14:31:32.229Z,18.86
2023-05-13T14:34:34.307Z,18.83
2023-05-13T14:37:35.848Z,18.82
2023-05-13T14:40:38.409Z,18.81
2023-05-13T14:43:40.082Z,18.81
2023-05-13T14:46:41.995Z,18.80
2023-05-13T14:49:44.177Z,18.79
2023-05-13T14:52:45.945Z,18.78
2023-05-13T14:55:49.398Z,18.77
2023-05-13T14:58:52.379Z,18.77
2023-05-13T15:01:54.268Z,18.75
2023-05-13T15:04:56.014Z,18.74
2023-05-13T15:07:58.292Z,18.72
2023-05-13T15:11:00.344Z,18.68
2023-05-13T15:14:02.597Z,18.65
2023-05-13T15:17:05.357Z,18.62
2023-05-13T15:20:07.729Z,18.58
2023-05-13T15:23:09.270Z,18.55
2023-05-13T15:26:11.201Z,18.54
2023-05-13T15:29:12.899Z,18.53
2023-05-13T15:32:14.746Z,18.49
2023-05-13T15:35:17.490Z,18.45
2023-05-13T15:38:19.190Z,18.42
2023-05-13T15:41:21.107Z,18.38
2023-05-13T15:44:22.813Z,18.36
2023-05-13T15:47:24.655Z,18.33
2023-05-13T15:50:26.801Z,18.31
2023-05-13T15:53:28.940Z,18.28
2023-05-13T15:56:30.583Z,18.26
2023-05-13T15:59:32.284Z,18.25
2023-05-13T16:02:40.775Z,18.22
2023-05-13T16:05:43.376Z,18.20
2023-05-13T16:08:45.049Z,18.19
2023-05-13T16:11:46.779Z,18.17
2023-05-13T16:14:48.478Z,18.15
2023-05-13T16:17:50.183Z,18.13
2023-05-13T16:20:52.052Z,18.10
2023-05-13T16:23:53.749Z,18.08
2023-05-13T16:26:55.390Z,18.07
2023-05-13T16:29:58.191Z,18.05
2023-05-13T16:33:00.228Z,18.04
2023-05-13T16:36:04.039Z,18.02
2023-05-13T16:39:06.217Z,18.00
2023-05-13T16:42:07.845Z,17.97
2023-05-13T16:45:09.798Z,17.95
2023-05-13T16:48:12.901Z,17.91
2023-05-13T16:51:14.723Z,17.86
2023-05-13T16:54:16.361Z,17.83
2023-05-13T16:57:19.150Z,17.79
2023-05-13T17:00:21.073Z,17.75
2023-05-13T17:03:23.029Z,17.72
2023-05-13T17:06:25.247Z,17.69
2023-05-13T17:09:26.973Z,17.67
2023-05-13T17:12:28.892Z,17.65
2023-05-13T17:15:30.962Z,17.62
2023-05-13T17:18:32.658Z,17.58
2023-05-13T17:21:35.024Z,17.55
2023-05-13T17:24:37.875Z,17.52
2023-05-13T17:27:40.133Z,17.50
2023-05-13T17:30:42.683Z,17.48
2023-05-13T17:33:44.518Z,17.46
2023-05-13T17:36:48.665Z,17.43
2023-05-13T17:39:51.906Z,17.42
2023-05-13T17:42:53.685Z,17.39
2023-05-13T17:45:55.460Z,17.36
2023-05-13T17:48:57.339Z,17.32
2023-05-13T17:51:59.146Z,17.30
2023-05-13T17:55:01.113Z,17.27
2023-05-13T17:58:02.829Z,17.24
2023-05-13T18:01:04.681Z,17.21
2023-05-13T18:04:06.482Z,17.18
2023-05-13T18:07:08.404Z,17.14
2023-05-13T18:10:10.196Z,17.10
2023-05-13T18:13:12.025Z,17.07
2023-05-13T18:16:13.718Z,17.02
2023-05-13T18:19:15.645Z,16.97
2023-05-13T18:22:17.556Z,16.92
2023-05-13T18:25:19.358Z,16.88
2023-05-13T18:28:21.933Z,16.84
2023-05-13T18:31:23.932Z,16.79
2023-05-13T18:34:25.791Z,16.74
2023-05-13T18:37:27.506Z,16.70
2023-05-13T18:40:29.722Z,16.65
2023-05-13T18:43:31.418Z,16.61
2023-05-13T18:46:33.576Z,16.56
2023-05-13T18:49:35.270Z,16.51
2023-05-13T18:52:38.266Z,16.46
2023-05-13T18:55:40.009Z,16.40
2023-05-13T18:58:41.749Z,16.33
2023-05-13T19:01:43.562Z,16.27
2023-05-13T19:04:45.392Z,16.21
2023-05-13T19:07:47.066Z,16.14
2023-05-13T19:10:49.524Z,16.09
2023-05-13T19:13:51.416Z,16.03
2023-05-13T19:16:54.113Z,15.96
2023-05-13T19:19:59.487Z,15.90
2023-05-13T19:23:01.372Z,15.83
2023-05-13T19:26:03.384Z,15.76
2023-05-13T19:29:05.516Z,15.70
2023-05-13T19:32:07.205Z,15.64
2023-05-13T19:35:09.277Z,15.58
2023-05-13T19:38:11.331Z,15.54
2023-05-13T19:41:13.064Z,15.49
2023-05-13T19:44:15.201Z,15.43
2023-05-13T19:47:16.885Z,15.38
2023-05-13T19:50:18.618Z,15.35
2023-05-13T19:53:21.368Z,15.31
2023-05-13T19:56:23.125Z,15.25
2023-05-13T19:59:24.821Z,15.21
2023-05-13T20:02:26.789Z,15.16
2023-05-13T20:05:28.606Z,15.11
2023-05-13T20:08:32.526Z,15.07
2023-05-13T20:11:34.255Z,15.01
2023-05-13T20:14:43.382Z,14.96
2023-05-13T20:17:45.408Z,14.92
2023-05-13T20:20:47.439Z,14.87
2023-05-13T20:23:49.120Z,14.83
2023-05-13T20:26:50.861Z,14.78
2023-05-13T20:29:54.527Z,14.73
2023-05-13T20:32:56.365Z,14.67
2023-05-13T20:35:58.215Z,14.63
2023-05-13T20:38:59.938Z,14.58
2023-05-13T20:42:01.775Z,14.53
2023-05-13T20:45:04.128Z,14.49
2023-05-13T20:48:06.269Z,14.43
2023-05-13T20:51:08.331Z,14.38
2023-05-13T20:54:11.312Z,14.33
2023-05-13T20:57:13.144Z,14.29
2023-05-13T21:00:15.651Z,14.26
2023-05-13T21:03:17.609Z,14.23
2023-05-13T21:06:19.470Z,14.19
2023-05-13T21:09:21.236Z,14.18
2023-05-13T21:12:23.592Z,14.15
2023-05-13T21:15:25.280Z,14.14
2023-05-13T21:18:27.023Z,14.12
2023-05-13T21:21:28.776Z,14.10
2023-05-13T21:24:30.760Z,14.08
2023-05-13T21:27:32.429Z,14.05
2023-05-13T21:30:34.115Z,14.03
2023-05-13T21:33:35.928Z,14.00
2023-05-13T21:36:38.681Z,13.98
2023-05-13T21:39:40.751Z,13.95
2023-05-13T21:42:42.500Z,13.92
2023-05-13T21:45:47.075Z,13.89
2023-05-13T21:48:48.779Z,13.86
2023-05-13T21:51:50.757Z,13.83
2023-05-13T21:54:52.596Z,13.80
2023-05-13T21:57:54.363Z,13.76
2023-05-13T22:00:56.092Z,13.74
2023-05-13T22:03:57.743Z,13.70
2023-05-13T22:07:00.635Z,13.66
2023-05-13T22:10:02.533Z,13.62
2023-05-13T22:13:04.643Z,13.57
2023-05-13T22:16:06.662Z,13.52
2023-05-13T22:19:08.507Z,13.49
2023-05-13T22:22:10.455Z,13.45
2023-05-13T22:25:12.144Z,13.42
2023-05-13T22:28:13.870Z,13.40
2023-05-13T22:31:16.212Z,13.37
2023-05-13T22:34:17.870Z,13.36
2023-05-13T22:37:19.604Z,13.36
2023-05-13T22:40:21.893Z,13.34
2023-05-13T22:43:23.661Z,13.32
2023-05-13T22:46:25.429Z,13.30
2023-05-13T22:49:27.136Z,13.29
2023-05-13T22:52:29.033Z,13.27
2023-05-13T22:55:30.688Z,13.24
2023-05-13T22:58:32.489Z,13.20
2023-05-13T23:01:34.319Z,13.17
2023-05-13T23:04:36.086Z,13.15
2023-05-13T23:07:37.785Z,13.13
2023-05-13T23:10:39.431Z,13.11
2023-05-13T23:13:41.071Z,13.09
2023-05-13T23:16:42.775Z,13.07
2023-05-13T23:19:44.450Z,13.04
2023-05-13T23:22:47.269Z,13.02
2023-05-13T23:25:49.136Z,13.00
2023-05-13T23:28:50.943Z,12.99
2023-05-13T23:31:54.530Z,12.97
2023-05-13T23:34:56.323Z,12.96
2023-05-13T23:37:58.175Z,12.94
2023-05-13T23:40:59.937Z,12.93
2023-05-13T23:44:01.838Z,12.92
2023-05-13T23:47:03.965Z,12.91
2023-05-13T23:50:06.440Z,12.89
2023-05-13T23:53:08.254Z,12.88
2023-05-13T23:56:10.150Z,12.87
2023-05-13T23:59:11.895Z,12.86
